createdAt,value
2018-08-24T00:00:01.669Z,1017.60964172
2018-08-24T00:00:14.268Z,1017.50805008
2018-08-24T00:00:26.768Z,1017.50805008
2018-08-24T00:00:39.221Z,1017.50805008
2018-08-24T00:00:51.682Z,1017.50805008
2018-08-24T00:01:04.123Z,1017.54191396
2018-08-24T00:01:16.563Z,1017.54191396
2018-08-24T00:01:29.007Z,1017.54191396
2018-08-24T00:01:41.438Z,1017.54191396
2018-08-24T00:01:53.842Z,1017.54191396
2018-08-24T00:02:06.257Z,1017.50805008
2018-08-24T00:02:18.661Z,1017.50805008
2018-08-24T00:02:31.074Z,1017.50805008
2018-08-24T00:02:43.612Z,1017.50805008
2018-08-24T00:02:56.017Z,1017.50805008
2018-08-24T00:03:08.414Z,1017.50805008
2018-08-24T00:03:20.848Z,1017.50805008
2018-08-24T00:03:33.262Z,1017.50805008
2018-08-24T00:03:45.656Z,1017.50805008
2018-08-24T00:03:58.091Z,1017.50805008
2018-08-24T00:04:10.494Z,1017.54191396
2018-08-24T00:04:22.938Z,1017.54191396
2018-08-24T00:04:35.425Z,1017.54191396
2018-08-24T00:04:47.850Z,1017.54191396
2018-08-24T00:05:00.326Z,1017.54191396
2018-08-24T00:05:12.734Z,1017.44032232
2018-08-24T00:05:25.137Z,1017.44032232
2018-08-24T00:05:37.647Z,1017.44032232
2018-08-24T00:05:50.065Z,1017.44032232
2018-08-24T00:06:02.474Z,1017.40645843
2018-08-24T00:06:14.877Z,1017.40645843
2018-08-24T00:06:27.315Z,1017.40645843
2018-08-24T00:06:39.733Z,1017.40645843
2018-08-24T00:06:52.150Z,1017.40645843
2018-08-24T00:07:04.561Z,1017.40645843
2018-08-24T00:07:17.561Z,1017.40645843
2018-08-24T00:07:31.083Z,1017.40645843
2018-08-24T00:07:43.539Z,1017.40645843
2018-08-24T00:07:55.967Z,1017.40645843
2018-08-24T00:08:08.515Z,1017.44032232
2018-08-24T00:08:21.000Z,1017.44032232
2018-08-24T00:08:33.401Z,1017.44032232
2018-08-24T00:08:45.832Z,1017.44032232
2018-08-24T00:08:58.265Z,1017.44032232
2018-08-24T00:09:10.825Z,1017.44032232
2018-08-24T00:09:23.260Z,1017.44032232
2018-08-24T00:09:35.732Z,1017.44032232
2018-08-24T00:09:48.180Z,1017.44032232
2018-08-24T00:10:00.684Z,1017.44032232
2018-08-24T00:10:13.131Z,1017.4741862
2018-08-24T00:10:25.874Z,1017.4741862
2018-08-24T00:10:38.312Z,1017.4741862
2018-08-24T00:10:50.764Z,1017.4741862
2018-08-24T00:11:03.213Z,1017.44032232
2018-08-24T00:11:15.675Z,1017.44032232
2018-08-24T00:11:28.124Z,1017.44032232
2018-08-24T00:11:40.542Z,1017.44032232
2018-08-24T00:11:52.974Z,1017.44032232
2018-08-24T00:12:05.389Z,1017.40645843
2018-08-24T00:12:17.809Z,1017.40645843
2018-08-24T00:12:30.229Z,1017.40645843
2018-08-24T00:12:42.652Z,1017.40645843
2018-08-24T00:12:55.073Z,1017.40645843
2018-08-24T00:13:07.521Z,1017.4741862
2018-08-24T00:13:19.945Z,1017.4741862
2018-08-24T00:13:32.373Z,1017.4741862
2018-08-24T00:13:44.804Z,1017.4741862
2018-08-24T00:13:57.265Z,1017.4741862
2018-08-24T00:14:09.683Z,1017.40645843
2018-08-24T00:14:22.123Z,1017.40645843
2018-08-24T00:14:34.542Z,1017.40645843
2018-08-24T00:14:46.972Z,1017.40645843
2018-08-24T00:14:59.397Z,1017.40645843
2018-08-24T00:15:11.823Z,1017.4741862
2018-08-24T00:15:24.245Z,1017.4741862
2018-08-24T00:15:36.710Z,1017.4741862
2018-08-24T00:15:49.145Z,1017.4741862
2018-08-24T00:16:01.560Z,1017.40645843
2018-08-24T00:16:13.984Z,1017.40645843
2018-08-24T00:16:26.381Z,1017.40645843
2018-08-24T00:16:38.782Z,1017.40645843
2018-08-24T00:16:51.247Z,1017.40645843
2018-08-24T00:17:03.654Z,1017.40645843
2018-08-24T00:17:16.069Z,1017.40645843
2018-08-24T00:17:28.671Z,1017.40645843
2018-08-24T00:17:41.148Z,1017.40645843
2018-08-24T00:17:53.567Z,1017.40645843
2018-08-24T00:18:05.992Z,1017.30486679
2018-08-24T00:18:18.396Z,1017.30486679
2018-08-24T00:18:31.009Z,1017.30486679
2018-08-24T00:18:43.434Z,1017.30486679
2018-08-24T00:18:55.865Z,1017.30486679
2018-08-24T00:19:08.284Z,1017.27100291
2018-08-24T00:19:20.711Z,1017.27100291
2018-08-24T00:19:33.188Z,1017.27100291
2018-08-24T00:19:45.602Z,1017.27100291
2018-08-24T00:19:58.024Z,1017.27100291
2018-08-24T00:20:10.435Z,1017.27100291
2018-08-24T00:20:22.840Z,1017.27100291
2018-08-24T00:20:35.254Z,1017.27100291
2018-08-24T00:20:47.671Z,1017.27100291
2018-08-24T00:21:00.125Z,1017.27100291
2018-08-24T00:21:12.590Z,1017.23713903
2018-08-24T00:21:25.032Z,1017.23713903
2018-08-24T00:21:37.452Z,1017.23713903
2018-08-24T00:21:49.882Z,1017.23713903
2018-08-24T00:22:02.294Z,1017.20327515
2018-08-24T00:22:14.735Z,1017.20327515
2018-08-24T00:22:27.150Z,1017.20327515
2018-08-24T00:22:39.714Z,1017.20327515
2018-08-24T00:22:52.120Z,1017.20327515
2018-08-24T00:23:04.520Z,1017.16941126
2018-08-24T00:23:16.950Z,1017.16941126
2018-08-24T00:23:29.369Z,1017.16941126
2018-08-24T00:23:41.782Z,1017.16941126
2018-08-24T00:23:54.201Z,1017.16941126
2018-08-24T00:24:06.586Z,1017.27100291
2018-08-24T00:24:19.017Z,1017.27100291
2018-08-24T00:24:31.430Z,1017.27100291
2018-08-24T00:24:43.852Z,1017.27100291
2018-08-24T00:24:56.289Z,1017.27100291
2018-08-24T00:25:08.709Z,1017.03395574
2018-08-24T00:25:21.134Z,1017.03395574
2018-08-24T00:25:33.554Z,1017.03395574
2018-08-24T00:25:46.001Z,1017.03395574
2018-08-24T00:25:58.410Z,1017.03395574
2018-08-24T00:26:10.814Z,1017.13554738
2018-08-24T00:26:23.224Z,1017.13554738
2018-08-24T00:26:35.649Z,1017.13554738
2018-08-24T00:26:48.056Z,1017.13554738
2018-08-24T00:27:00.623Z,1017.13554738
2018-08-24T00:27:13.037Z,1017.03395574
2018-08-24T00:27:25.485Z,1017.03395574
2018-08-24T00:27:37.900Z,1017.03395574
2018-08-24T00:27:50.391Z,1017.03395574
2018-08-24T00:28:02.933Z,1017.03395574
2018-08-24T00:28:15.338Z,1017.03395574
2018-08-24T00:28:27.752Z,1017.03395574
2018-08-24T00:28:40.152Z,1017.03395574
2018-08-24T00:28:52.549Z,1017.03395574
2018-08-24T00:29:04.937Z,1017.03395574
2018-08-24T00:29:17.347Z,1017.03395574
2018-08-24T00:29:29.749Z,1017.03395574
2018-08-24T00:29:42.178Z,1017.03395574
2018-08-24T00:29:54.582Z,1017.03395574
2018-08-24T00:30:06.996Z,1017.1016835
2018-08-24T00:30:19.421Z,1017.1016835
2018-08-24T00:30:31.823Z,1017.1016835
2018-08-24T00:30:44.251Z,1017.1016835
2018-08-24T00:30:56.656Z,1017.1016835
2018-08-24T00:31:09.057Z,1017.1016835
2018-08-24T00:31:21.479Z,1017.1016835
2018-08-24T00:31:33.948Z,1017.1016835
2018-08-24T00:31:47.379Z,1017.1016835
2018-08-24T00:32:00.704Z,1017.1016835
2018-08-24T00:32:13.126Z,1017.03395574
2018-08-24T00:32:25.563Z,1017.03395574
2018-08-24T00:32:38.099Z,1017.03395574
2018-08-24T00:32:50.515Z,1017.03395574
2018-08-24T00:33:02.965Z,1017.03395574
2018-08-24T00:33:15.375Z,1017.03395574
2018-08-24T00:33:27.756Z,1017.03395574
2018-08-24T00:33:40.170Z,1017.03395574
2018-08-24T00:33:52.567Z,1017.03395574
2018-08-24T00:34:05.082Z,1017.1016835
2018-08-24T00:34:17.493Z,1017.1016835
2018-08-24T00:34:29.908Z,1017.1016835
2018-08-24T00:34:42.319Z,1017.1016835
2018-08-24T00:34:54.729Z,1017.1016835
2018-08-24T00:35:07.218Z,1017.06781962
2018-08-24T00:35:19.622Z,1017.06781962
2018-08-24T00:35:32.026Z,1017.06781962
2018-08-24T00:35:44.439Z,1017.06781962
2018-08-24T00:35:56.826Z,1017.06781962
2018-08-24T00:36:09.248Z,1017.03395574
2018-08-24T00:36:21.639Z,1017.03395574
2018-08-24T00:36:34.066Z,1017.03395574
2018-08-24T00:36:46.751Z,1017.03395574
2018-08-24T00:36:59.161Z,1017.03395574
2018-08-24T00:37:11.572Z,1017.06781962
2018-08-24T00:37:23.989Z,1017.06781962
2018-08-24T00:37:36.397Z,1017.06781962
2018-08-24T00:37:48.924Z,1017.06781962
2018-08-24T00:38:01.478Z,1017.06781962
2018-08-24T00:38:13.879Z,1017.06781962
2018-08-24T00:38:26.361Z,1017.06781962
2018-08-24T00:38:38.765Z,1017.06781962
2018-08-24T00:38:51.186Z,1017.06781962
2018-08-24T00:39:03.610Z,1017.1016835
2018-08-24T00:39:16.095Z,1017.1016835
2018-08-24T00:39:28.488Z,1017.1016835
2018-08-24T00:39:40.959Z,1017.1016835
2018-08-24T00:39:53.377Z,1017.1016835
2018-08-24T00:40:05.988Z,1017.03395574
2018-08-24T00:40:18.608Z,1017.03395574
2018-08-24T00:40:31.003Z,1017.03395574
2018-08-24T00:40:43.414Z,1017.03395574
2018-08-24T00:40:55.797Z,1017.03395574
2018-08-24T00:41:08.197Z,1017.03395574
2018-08-24T00:41:20.633Z,1017.03395574
2018-08-24T00:41:33.262Z,1017.03395574
2018-08-24T00:41:45.666Z,1017.03395574
2018-08-24T00:41:58.088Z,1017.03395574
2018-08-24T00:42:10.541Z,1017.00009186
2018-08-24T00:42:22.969Z,1017.00009186
2018-08-24T00:42:35.661Z,1017.00009186
2018-08-24T00:42:49.117Z,1017.00009186
2018-08-24T00:43:01.731Z,1016.96622797
2018-08-24T00:43:14.125Z,1016.96622797
2018-08-24T00:43:26.530Z,1016.96622797
2018-08-24T00:43:38.947Z,1016.96622797
2018-08-24T00:43:51.404Z,1016.96622797
2018-08-24T00:44:03.804Z,1017.03395574
2018-08-24T00:44:16.232Z,1017.03395574
2018-08-24T00:44:28.627Z,1017.03395574
2018-08-24T00:44:41.038Z,1017.03395574
2018-08-24T00:44:53.459Z,1017.03395574
2018-08-24T00:45:05.897Z,1017.06781962
2018-08-24T00:45:18.318Z,1017.06781962
2018-08-24T00:45:30.714Z,1017.06781962
2018-08-24T00:45:43.135Z,1017.06781962
2018-08-24T00:45:55.540Z,1017.06781962
2018-08-24T00:46:07.948Z,1016.96622797
2018-08-24T00:46:20.523Z,1016.96622797
2018-08-24T00:46:32.920Z,1016.96622797
2018-08-24T00:46:45.316Z,1016.96622797
2018-08-24T00:46:57.718Z,1016.96622797
2018-08-24T00:47:10.383Z,1017.03395574
2018-08-24T00:47:23.089Z,1017.03395574
2018-08-24T00:47:35.509Z,1017.03395574
2018-08-24T00:47:47.930Z,1017.03395574
2018-08-24T00:48:00.335Z,1017.03395574
2018-08-24T00:48:12.736Z,1016.96622797
2018-08-24T00:48:25.146Z,1016.96622797
2018-08-24T00:48:37.552Z,1016.96622797
2018-08-24T00:48:49.964Z,1016.96622797
2018-08-24T00:49:02.385Z,1016.93236409
2018-08-24T00:49:14.942Z,1016.93236409
2018-08-24T00:49:27.362Z,1016.93236409
2018-08-24T00:49:39.791Z,1016.93236409
2018-08-24T00:49:52.220Z,1016.93236409
2018-08-24T00:50:04.656Z,1016.96622797
2018-08-24T00:50:17.106Z,1016.96622797
2018-08-24T00:50:29.549Z,1016.96622797
2018-08-24T00:50:41.955Z,1016.96622797
2018-08-24T00:50:54.349Z,1016.96622797
2018-08-24T00:51:06.757Z,1016.96622797
2018-08-24T00:51:19.160Z,1016.96622797
2018-08-24T00:51:31.628Z,1016.96622797
2018-08-24T00:51:44.026Z,1016.96622797
2018-08-24T00:51:56.448Z,1016.96622797
2018-08-24T00:52:09.157Z,1016.89850021
2018-08-24T00:52:21.579Z,1016.89850021
2018-08-24T00:52:33.978Z,1016.89850021
2018-08-24T00:52:46.384Z,1016.89850021
2018-08-24T00:52:58.805Z,1016.89850021
2018-08-24T00:53:11.213Z,1016.83077245
2018-08-24T00:53:23.618Z,1016.83077245
2018-08-24T00:53:36.039Z,1016.83077245
2018-08-24T00:53:48.438Z,1016.83077245
2018-08-24T00:54:00.882Z,1016.83077245
2018-08-24T00:54:13.361Z,1016.93236409
2018-08-24T00:54:25.773Z,1016.93236409
2018-08-24T00:54:38.211Z,1016.93236409
2018-08-24T00:54:50.653Z,1016.93236409
2018-08-24T00:55:03.115Z,1016.83077245
2018-08-24T00:55:15.542Z,1016.83077245
2018-08-24T00:55:28.243Z,1016.83077245
2018-08-24T00:55:40.676Z,1016.83077245
2018-08-24T00:55:53.096Z,1016.83077245
2018-08-24T00:56:05.510Z,1016.76304468
2018-08-24T00:56:18.009Z,1016.76304468
2018-08-24T00:56:30.424Z,1016.76304468
2018-08-24T00:56:42.832Z,1016.76304468
2018-08-24T00:56:55.237Z,1016.76304468
2018-08-24T00:57:07.646Z,1016.69531692
2018-08-24T00:57:20.121Z,1016.69531692
2018-08-24T00:57:32.537Z,1016.69531692
2018-08-24T00:57:44.943Z,1016.69531692
2018-08-24T00:57:57.368Z,1016.69531692
2018-08-24T00:58:09.799Z,1016.62758916
2018-08-24T00:58:22.233Z,1016.62758916
2018-08-24T00:58:34.658Z,1016.62758916
2018-08-24T00:58:47.070Z,1016.62758916
2018-08-24T00:58:59.477Z,1016.62758916
2018-08-24T00:59:11.887Z,1016.69531692
2018-08-24T00:59:24.290Z,1016.69531692
2018-08-24T00:59:36.717Z,1016.69531692
2018-08-24T00:59:49.126Z,1016.69531692
2018-08-24T01:00:01.538Z,1016.69531692
2018-08-24T01:00:13.976Z,1016.59372528
2018-08-24T01:00:26.409Z,1016.59372528
2018-08-24T01:00:38.821Z,1016.59372528
2018-08-24T01:00:51.249Z,1016.59372528
2018-08-24T01:01:03.648Z,1016.69531692
2018-08-24T01:01:16.063Z,1016.69531692
2018-08-24T01:01:28.491Z,1016.69531692
2018-08-24T01:01:40.936Z,1016.69531692
2018-08-24T01:01:53.337Z,1016.69531692
2018-08-24T01:02:05.752Z,1016.62758916
2018-08-24T01:02:18.298Z,1016.62758916
2018-08-24T01:02:30.703Z,1016.62758916
2018-08-24T01:02:43.307Z,1016.62758916
2018-08-24T01:02:55.770Z,1016.62758916
2018-08-24T01:03:08.204Z,1016.62758916
2018-08-24T01:03:20.647Z,1016.62758916
2018-08-24T01:03:33.064Z,1016.62758916
2018-08-24T01:03:45.505Z,1016.62758916
2018-08-24T01:03:57.947Z,1016.62758916
2018-08-24T01:04:10.354Z,1016.66145304
2018-08-24T01:04:22.785Z,1016.66145304
2018-08-24T01:04:35.198Z,1016.66145304
2018-08-24T01:04:47.621Z,1016.66145304
2018-08-24T01:05:00.061Z,1016.66145304
2018-08-24T01:05:12.483Z,1016.59372528
2018-08-24T01:05:24.911Z,1016.59372528
2018-08-24T01:05:37.501Z,1016.59372528
2018-08-24T01:05:49.933Z,1016.59372528
2018-08-24T01:06:02.353Z,1016.62758916
2018-08-24T01:06:14.788Z,1016.62758916
2018-08-24T01:06:27.222Z,1016.62758916
2018-08-24T01:06:39.648Z,1016.62758916
2018-08-24T01:06:52.265Z,1016.62758916
2018-08-24T01:07:04.658Z,1016.76304468
2018-08-24T01:07:17.092Z,1016.76304468
2018-08-24T01:07:29.815Z,1016.76304468
2018-08-24T01:07:43.216Z,1016.76304468
2018-08-24T01:07:55.657Z,1016.76304468
2018-08-24T01:08:08.174Z,1016.76304468
2018-08-24T01:08:20.649Z,1016.76304468
2018-08-24T01:08:33.068Z,1016.76304468
2018-08-24T01:08:45.491Z,1016.76304468
2018-08-24T01:08:57.910Z,1016.76304468
2018-08-24T01:09:10.306Z,1016.69531692
2018-08-24T01:09:22.737Z,1016.69531692
2018-08-24T01:09:35.384Z,1016.69531692
2018-08-24T01:09:47.793Z,1016.69531692
2018-08-24T01:10:00.229Z,1016.69531692
2018-08-24T01:10:12.678Z,1016.76304468
2018-08-24T01:10:25.306Z,1016.76304468
2018-08-24T01:10:37.748Z,1016.76304468
2018-08-24T01:10:50.166Z,1016.76304468
2018-08-24T01:11:02.567Z,1016.69531692
2018-08-24T01:11:15.003Z,1016.69531692
2018-08-24T01:11:27.414Z,1016.69531692
2018-08-24T01:11:39.850Z,1016.69531692
2018-08-24T01:11:52.273Z,1016.69531692
2018-08-24T01:12:04.685Z,1016.66145304
2018-08-24T01:12:17.192Z,1016.66145304
2018-08-24T01:12:29.603Z,1016.66145304
2018-08-24T01:12:42.027Z,1016.66145304
2018-08-24T01:12:54.423Z,1016.66145304
2018-08-24T01:13:06.894Z,1016.62758916
2018-08-24T01:13:19.323Z,1016.62758916
2018-08-24T01:13:31.721Z,1016.62758916
2018-08-24T01:13:44.120Z,1016.62758916
2018-08-24T01:13:56.708Z,1016.62758916
2018-08-24T01:14:09.124Z,1016.66145304
2018-08-24T01:14:21.528Z,1016.66145304
2018-08-24T01:14:33.928Z,1016.66145304
2018-08-24T01:14:46.340Z,1016.66145304
2018-08-24T01:14:58.763Z,1016.66145304
2018-08-24T01:15:11.213Z,1016.59372528
2018-08-24T01:15:23.655Z,1016.59372528
2018-08-24T01:15:36.099Z,1016.59372528
2018-08-24T01:15:48.506Z,1016.59372528
2018-08-24T01:16:00.944Z,1016.59372528
2018-08-24T01:16:13.352Z,1016.59372528
2018-08-24T01:16:25.756Z,1016.59372528
2018-08-24T01:16:38.150Z,1016.59372528
2018-08-24T01:16:50.553Z,1016.59372528
2018-08-24T01:17:02.963Z,1016.66145304
2018-08-24T01:17:15.449Z,1016.66145304
2018-08-24T01:17:27.867Z,1016.66145304
2018-08-24T01:17:40.265Z,1016.66145304
2018-08-24T01:17:52.664Z,1016.66145304
2018-08-24T01:18:05.072Z,1016.69531692
2018-08-24T01:18:17.501Z,1016.69531692
2018-08-24T01:18:30.048Z,1016.69531692
2018-08-24T01:18:42.474Z,1016.69531692
2018-08-24T01:18:54.896Z,1016.69531692
2018-08-24T01:19:07.319Z,1016.66145304
2018-08-24T01:19:19.796Z,1016.66145304
2018-08-24T01:19:32.262Z,1016.66145304
2018-08-24T01:19:44.715Z,1016.66145304
2018-08-24T01:19:57.140Z,1016.66145304
2018-08-24T01:20:09.611Z,1016.69531692
2018-08-24T01:20:22.042Z,1016.69531692
2018-08-24T01:20:34.476Z,1016.69531692
2018-08-24T01:20:46.908Z,1016.69531692
2018-08-24T01:20:59.349Z,1016.69531692
2018-08-24T01:21:11.771Z,1016.69531692
2018-08-24T01:21:24.179Z,1016.69531692
2018-08-24T01:21:36.609Z,1016.69531692
2018-08-24T01:21:49.039Z,1016.69531692
2018-08-24T01:22:01.457Z,1016.76304468
2018-08-24T01:22:13.879Z,1016.76304468
2018-08-24T01:22:26.280Z,1016.76304468
2018-08-24T01:22:38.826Z,1016.76304468
2018-08-24T01:22:51.230Z,1016.76304468
2018-08-24T01:23:03.650Z,1016.62758916
2018-08-24T01:23:16.054Z,1016.62758916
2018-08-24T01:23:28.489Z,1016.62758916
2018-08-24T01:23:40.940Z,1016.62758916
2018-08-24T01:23:53.353Z,1016.62758916
2018-08-24T01:24:05.998Z,1016.69531692
2018-08-24T01:24:18.398Z,1016.69531692
2018-08-24T01:24:30.804Z,1016.69531692
2018-08-24T01:24:43.207Z,1016.69531692
2018-08-24T01:24:55.643Z,1016.69531692
2018-08-24T01:25:08.072Z,1016.66145304
2018-08-24T01:25:20.497Z,1016.66145304
2018-08-24T01:25:32.901Z,1016.66145304
2018-08-24T01:25:45.347Z,1016.66145304
2018-08-24T01:25:57.817Z,1016.66145304
2018-08-24T01:26:10.234Z,1016.69531692
2018-08-24T01:26:22.654Z,1016.69531692
2018-08-24T01:26:35.187Z,1016.69531692
2018-08-24T01:26:47.616Z,1016.69531692
2018-08-24T01:27:00.213Z,1016.69531692
2018-08-24T01:27:12.642Z,1016.69531692
2018-08-24T01:27:25.072Z,1016.69531692
2018-08-24T01:27:37.471Z,1016.69531692
2018-08-24T01:27:49.921Z,1016.69531692
2018-08-24T01:28:02.479Z,1016.59372528
2018-08-24T01:28:14.882Z,1016.59372528
2018-08-24T01:28:27.319Z,1016.59372528
2018-08-24T01:28:39.735Z,1016.59372528
2018-08-24T01:28:52.155Z,1016.59372528
2018-08-24T01:29:04.591Z,1016.59372528
2018-08-24T01:29:17.027Z,1016.59372528
2018-08-24T01:29:29.462Z,1016.59372528
2018-08-24T01:29:41.912Z,1016.59372528
2018-08-24T01:29:54.327Z,1016.59372528
2018-08-24T01:30:06.758Z,1016.66145304
2018-08-24T01:30:19.167Z,1016.66145304
2018-08-24T01:30:31.566Z,1016.66145304
2018-08-24T01:30:43.996Z,1016.66145304
2018-08-24T01:30:56.388Z,1016.66145304
2018-08-24T01:31:08.790Z,1016.62758916
2018-08-24T01:31:21.191Z,1016.62758916
2018-08-24T01:31:33.586Z,1016.62758916
2018-08-24T01:31:46.001Z,1016.62758916
2018-08-24T01:31:58.407Z,1016.62758916
2018-08-24T01:32:11.143Z,1016.59372528
2018-08-24T01:32:23.546Z,1016.59372528
2018-08-24T01:32:35.944Z,1016.59372528
2018-08-24T01:32:48.397Z,1016.59372528
2018-08-24T01:33:00.859Z,1016.59372528
2018-08-24T01:33:13.279Z,1016.52599751
2018-08-24T01:33:25.748Z,1016.52599751
2018-08-24T01:33:38.144Z,1016.52599751
2018-08-24T01:33:50.568Z,1016.52599751
2018-08-24T01:34:03.104Z,1016.5598614
2018-08-24T01:34:15.524Z,1016.5598614
2018-08-24T01:34:28.018Z,1016.5598614
2018-08-24T01:34:40.424Z,1016.5598614
2018-08-24T01:34:52.829Z,1016.5598614
2018-08-24T01:35:05.235Z,1016.49213363
2018-08-24T01:35:17.809Z,1016.49213363
2018-08-24T01:35:30.229Z,1016.49213363
2018-08-24T01:35:42.622Z,1016.49213363
2018-08-24T01:35:55.019Z,1016.49213363
2018-08-24T01:36:07.423Z,1016.52599751
2018-08-24T01:36:19.838Z,1016.52599751
2018-08-24T01:36:32.276Z,1016.52599751
2018-08-24T01:36:44.680Z,1016.52599751
2018-08-24T01:36:57.083Z,1016.52599751
2018-08-24T01:37:09.498Z,1016.62758916
2018-08-24T01:37:21.897Z,1016.62758916
2018-08-24T01:37:34.300Z,1016.62758916
2018-08-24T01:37:46.696Z,1016.62758916
2018-08-24T01:37:59.091Z,1016.62758916
2018-08-24T01:38:11.511Z,1016.62758916
2018-08-24T01:38:23.923Z,1016.62758916
2018-08-24T01:38:36.316Z,1016.62758916
2018-08-24T01:38:48.766Z,1016.62758916
2018-08-24T01:39:01.189Z,1016.62758916
2018-08-24T01:39:13.586Z,1016.59372528
2018-08-24T01:39:25.979Z,1016.59372528
2018-08-24T01:39:38.393Z,1016.59372528
2018-08-24T01:39:50.821Z,1016.59372528
2018-08-24T01:40:03.239Z,1016.52599751
2018-08-24T01:40:15.740Z,1016.52599751
2018-08-24T01:40:28.269Z,1016.52599751
2018-08-24T01:40:40.667Z,1016.52599751
2018-08-24T01:40:53.064Z,1016.52599751
2018-08-24T01:41:05.451Z,1016.45826975
2018-08-24T01:41:17.868Z,1016.45826975
2018-08-24T01:41:30.297Z,1016.45826975
2018-08-24T01:41:42.691Z,1016.45826975
2018-08-24T01:41:55.111Z,1016.45826975
2018-08-24T01:42:07.648Z,1016.49213363
2018-08-24T01:42:20.045Z,1016.49213363
2018-08-24T01:42:32.451Z,1016.49213363
2018-08-24T01:42:44.854Z,1016.49213363
2018-08-24T01:42:57.260Z,1016.49213363
2018-08-24T01:43:09.652Z,1016.45826975
2018-08-24T01:43:22.046Z,1016.45826975
2018-08-24T01:43:34.656Z,1016.45826975
2018-08-24T01:43:47.067Z,1016.45826975
2018-08-24T01:43:59.466Z,1016.45826975
2018-08-24T01:44:12.068Z,1016.52599751
2018-08-24T01:44:24.493Z,1016.52599751
2018-08-24T01:44:36.912Z,1016.52599751
2018-08-24T01:44:49.362Z,1016.52599751
2018-08-24T01:45:01.742Z,1016.45826975
2018-08-24T01:45:14.190Z,1016.45826975
2018-08-24T01:45:26.607Z,1016.45826975
2018-08-24T01:45:39.003Z,1016.45826975
2018-08-24T01:45:51.434Z,1016.45826975
2018-08-24T01:46:03.836Z,1016.49213363
2018-08-24T01:46:16.672Z,1016.49213363
2018-08-24T01:46:29.085Z,1016.49213363
2018-08-24T01:46:41.481Z,1016.49213363
2018-08-24T01:46:53.860Z,1016.49213363
2018-08-24T01:47:06.268Z,1016.45826975
2018-08-24T01:47:18.762Z,1016.45826975
2018-08-24T01:47:31.157Z,1016.45826975
2018-08-24T01:47:43.586Z,1016.45826975
2018-08-24T01:47:55.990Z,1016.45826975
2018-08-24T01:48:08.419Z,1016.42440587
2018-08-24T01:48:20.826Z,1016.42440587
2018-08-24T01:48:33.269Z,1016.42440587
2018-08-24T01:48:45.675Z,1016.42440587
2018-08-24T01:48:58.128Z,1016.42440587
2018-08-24T01:49:10.672Z,1016.39054199
2018-08-24T01:49:23.073Z,1016.39054199
2018-08-24T01:49:35.506Z,1016.39054199
2018-08-24T01:49:47.935Z,1016.39054199
2018-08-24T01:50:00.355Z,1016.39054199
2018-08-24T01:50:12.804Z,1016.28895034
2018-08-24T01:50:25.224Z,1016.28895034
2018-08-24T01:50:37.623Z,1016.28895034
2018-08-24T01:50:50.020Z,1016.28895034
2018-08-24T01:51:02.466Z,1016.39054199
2018-08-24T01:51:14.881Z,1016.39054199
2018-08-24T01:51:27.293Z,1016.39054199
2018-08-24T01:51:39.718Z,1016.39054199
2018-08-24T01:51:52.147Z,1016.39054199
2018-08-24T01:52:04.582Z,1016.32281422
2018-08-24T01:52:17.347Z,1016.32281422
2018-08-24T01:52:29.752Z,1016.32281422
2018-08-24T01:52:42.155Z,1016.32281422
2018-08-24T01:52:54.546Z,1016.32281422
2018-08-24T01:53:06.945Z,1016.42440587
2018-08-24T01:53:19.339Z,1016.42440587
2018-08-24T01:53:31.793Z,1016.42440587
2018-08-24T01:53:44.208Z,1016.42440587
2018-08-24T01:53:56.630Z,1016.42440587
2018-08-24T01:54:09.041Z,1016.25508646
2018-08-24T01:54:21.462Z,1016.25508646
2018-08-24T01:54:33.866Z,1016.25508646
2018-08-24T01:54:46.270Z,1016.25508646
2018-08-24T01:54:58.667Z,1016.25508646
2018-08-24T01:55:11.066Z,1016.39054199
2018-08-24T01:55:23.465Z,1016.39054199
2018-08-24T01:55:35.890Z,1016.39054199
2018-08-24T01:55:48.299Z,1016.39054199
2018-08-24T01:56:00.683Z,1016.39054199
2018-08-24T01:56:13.085Z,1016.39054199
2018-08-24T01:56:25.505Z,1016.39054199
2018-08-24T01:56:37.915Z,1016.39054199
2018-08-24T01:56:50.322Z,1016.39054199
2018-08-24T01:57:02.718Z,1016.32281422
2018-08-24T01:57:15.215Z,1016.32281422
2018-08-24T01:57:27.629Z,1016.32281422
2018-08-24T01:57:40.048Z,1016.32281422
2018-08-24T01:57:52.456Z,1016.32281422
2018-08-24T01:58:04.873Z,1016.32281422
2018-08-24T01:58:17.290Z,1016.32281422
2018-08-24T01:58:29.704Z,1016.32281422
2018-08-24T01:58:42.115Z,1016.32281422
2018-08-24T01:58:54.645Z,1016.32281422
2018-08-24T01:59:07.912Z,1016.35667811
2018-08-24T01:59:21.091Z,1016.35667811
2018-08-24T01:59:33.531Z,1016.35667811
2018-08-24T01:59:45.934Z,1016.35667811
2018-08-24T01:59:58.340Z,1016.35667811
2018-08-24T02:00:10.773Z,1016.35667811
2018-08-24T02:00:23.200Z,1016.35667811
2018-08-24T02:00:35.644Z,1016.35667811
2018-08-24T02:00:48.101Z,1016.35667811
2018-08-24T02:01:00.545Z,1016.35667811
2018-08-24T02:01:13.012Z,1016.39054199
2018-08-24T02:01:25.518Z,1016.39054199
2018-08-24T02:01:37.936Z,1016.39054199
2018-08-24T02:01:50.352Z,1016.39054199
2018-08-24T02:02:02.793Z,1016.39054199
2018-08-24T02:02:15.271Z,1016.39054199
2018-08-24T02:02:27.701Z,1016.39054199
2018-08-24T02:02:40.251Z,1016.39054199
2018-08-24T02:02:52.665Z,1016.39054199
2018-08-24T02:03:05.088Z,1016.28895034
2018-08-24T02:03:17.489Z,1016.28895034
2018-08-24T02:03:29.912Z,1016.28895034
2018-08-24T02:03:42.344Z,1016.28895034
2018-08-24T02:03:54.825Z,1016.28895034
2018-08-24T02:04:07.232Z,1016.39054199
2018-08-24T02:04:19.635Z,1016.39054199
2018-08-24T02:04:32.184Z,1016.39054199
2018-08-24T02:04:44.618Z,1016.39054199
2018-08-24T02:04:57.026Z,1016.39054199
2018-08-24T02:05:09.456Z,1016.32281422
2018-08-24T02:05:21.857Z,1016.32281422
2018-08-24T02:05:34.393Z,1016.32281422
2018-08-24T02:05:46.851Z,1016.32281422
2018-08-24T02:05:59.283Z,1016.32281422
2018-08-24T02:06:11.753Z,1016.39054199
2018-08-24T02:06:24.165Z,1016.39054199
2018-08-24T02:06:36.615Z,1016.39054199
2018-08-24T02:06:49.020Z,1016.39054199
2018-08-24T02:07:01.451Z,1016.42440587
2018-08-24T02:07:13.863Z,1016.42440587
2018-08-24T02:07:26.275Z,1016.42440587